Map

Track Data

SID SEASON NUMBER BASIN SUBBASIN NAME ISO_TIME NATURE LAT LON WMO_WIND WMO_PRES WMO_AGENCY TRACK_TYPE DIST2LAND LANDFALL IFLAG USA_AGENCY USA_ATCF_ID USA_LAT USA_LON USA_RECORD USA_STATUS USA_WIND USA_PRES USA_SSHS USA_R34_NE USA_R34_SE USA_R34_SW USA_R34_NW USA_R50_NE USA_R50_SE USA_R50_SW USA_R50_NW USA_R64_NE USA_R64_SE USA_R64_SW USA_R64_NW USA_POCI USA_ROCI USA_RMW USA_EYE TOKYO_LAT TOKYO_LON TOKYO_GRADE TOKYO_WIND TOKYO_PRES TOKYO_R50_DIR TOKYO_R50_LONG TOKYO_R50_SHORT TOKYO_R30_DIR TOKYO_R30_LONG TOKYO_R30_SHORT TOKYO_LAND CMA_LAT CMA_LON CMA_CAT CMA_WIND CMA_PRES HKO_LAT HKO_LON HKO_CAT HKO_WIND HKO_PRES NEWDELHI_LAT NEWDELHI_LON NEWDELHI_GRADE NEWDELHI_WIND NEWDELHI_PRES NEWDELHI_CI NEWDELHI_DP NEWDELHI_POCI REUNION_LAT REUNION_LON REUNION_TYPE REUNION_WIND REUNION_PRES REUNION_TNUM REUNION_CI REUNION_RMW REUNION_R34_NE REUNION_R34_SE REUNION_R34_SW REUNION_R34_NW REUNION_R50_NE REUNION_R50_SE REUNION_R50_SW REUNION_R50_NW REUNION_R64_NE REUNION_R64_SE REUNION_R64_SW REUNION_R64_NW BOM_LAT BOM_LON BOM_TYPE BOM_WIND BOM_PRES BOM_TNUM BOM_CI BOM_RMW BOM_R34_NE BOM_R34_SE BOM_R34_SW BOM_R34_NW BOM_R50_NE BOM_R50_SE BOM_R50_SW BOM_R50_NW BOM_R64_NE BOM_R64_SE BOM_R64_SW BOM_R64_NW BOM_ROCI BOM_POCI BOM_EYE BOM_POS_METHOD BOM_PRES_METHOD NADI_LAT NADI_LON NADI_CAT NADI_WIND NADI_PRES WELLINGTON_LAT WELLINGTON_LON WELLINGTON_WIND WELLINGTON_PRES DS824_LAT DS824_LON DS824_STAGE DS824_WIND DS824_PRES TD9636_LAT TD9636_LON TD9636_STAGE TD9636_WIND TD9636_PRES TD9635_LAT TD9635_LON TD9635_WIND TD9635_PRES TD9635_ROCI NEUMANN_LAT NEUMANN_LON NEUMANN_CLASS NEUMANN_WIND NEUMANN_PRES MLC_LAT MLC_LON MLC_CLASS MLC_WIND MLC_PRES USA_GUST BOM_GUST BOM_GUST_PER REUNION_GUST REUNION_GUST_PER USA_SEAHGT USA_SEARAD_NE USA_SEARAD_SE USA_SEARAD_SW USA_SEARAD_NW STORM_SPEED STORM_DIR
1903011S13063 1903 7 SI MM NOT_NAMED 1903-01-11 06:00:00 NR -12.8000 63.1000 reunion spur-split 999 993 _____O________ -1 -12.8000 63.1000 99 9.90000 1 243
1903011S13063 1903 7 SI MM NOT_NAMED 1903-01-11 09:00:00 NR -12.8251 63.0426 spur-split 993 983 _____P________ -1 -12.8251 63.0426 99 1 243
1903011S13063 1903 7 SI MM NOT_NAMED 1903-01-11 12:00:00 NR -12.8561 62.9836 spur-split 983 977 _____P________ -1 -12.8561 62.9836 99 1 237
1903011S13063 1903 7 SI MM NOT_NAMED 1903-01-11 15:00:00 NR -12.8991 62.9212 spur-split 977 968 _____P________ -1 -12.8991 62.9212 99 2 231
1903011S13063 1903 7 SI MM NOT_NAMED 1903-01-11 18:00:00 NR -12.9598 62.8538 spur-split 968 962 _____P________ -1 -12.9598 62.8538 99 2 223
1903011S13063 1903 7 SI MM NOT_NAMED 1903-01-11 21:00:00 NR -13.0443 62.7797 spur-split 962 937 _____P________ -1 -13.0443 62.7797 99 3 217
1903011S13063 1903 7 SI MM NOT_NAMED 1903-01-12 00:00:00 NR -13.1586 62.6972 spur-split 937 922 _____P________ -1 -13.1586 62.6972 99 3 213
1903011S13063 1903 7 SI MM NOT_NAMED 1903-01-12 03:00:00 NR -13.3085 62.6045 spur-split 922 897 _____P________ -1 -13.3085 62.6045 99 4 209
1903011S13063 1903 7 SI MM NOT_NAMED 1903-01-12 06:00:00 NR -13.5000 62.5000 reunion spur-split 897 873 _____O________ -1 -13.5000 62.5000 99 9.90000 5 207
1903011S13063 1903 7 SI MM NOT_NAMED 1903-01-12 09:00:00 NR -13.7368 62.3830 spur-split 873 839 _____P________ -1 -13.7368 62.3830 99 6 205
1903011S13063 1903 7 SI MM NOT_NAMED 1903-01-12 12:00:00 NR -14.0137 62.2572 spur-split 839 799 _____P________ -1 -14.0137 62.2572 99 6 203
1903011S13063 1903 7 SI MM NOT_NAMED 1903-01-12 15:00:00 NR -14.3233 62.1277 spur-split 799 766 _____P________ -1 -14.3233 62.1277 99 7 201
1903011S13063 1903 7 SI MM NOT_NAMED 1903-01-12 18:00:00 NR -14.6580 61.9994 spur-split 757 723 _____P________ -1 -14.6580 61.9994 99 7 199
1903011S13063 1903 7 SI MM NOT_NAMED 1903-01-12 21:00:00 NR -15.0104 61.8774 spur-split 723 681 _____P________ -1 -15.0104 61.8774 99 8 197
1903011S13063 1903 7 SI MM NOT_NAMED 1903-01-13 00:00:00 NR -15.3732 61.7667 spur-split 681 649 _____P________ -1 -15.3732 61.7667 99 8 195
1903011S13063 1903 7 SI MM NOT_NAMED 1903-01-13 03:00:00 NR -15.7388 61.6725 spur-split 649 608 _____P________ -1 -15.7388 61.6725 99 7 192
1903011S13063 1903 7 SI MM NOT_NAMED 1903-01-13 06:00:00 NR -16.1000 61.6000 reunion spur-split 608 583 _____O________ -1 -16.1000 61.6000 99 9.90000 7 189
1903011S13063 1903 7 SI MM NOT_NAMED 1903-01-13 09:00:00 NR -16.4306 61.5617 spur-split 583 552 _____P________ -1 -16.4306 61.5617 99 7 185
1903011S13063 1903 7 SI MM NOT_NAMED 1903-01-13 12:00:00 NR -16.7620 61.5441 spur-split 544 522 _____P________ -1 -16.7620 61.5441 99 7 0
1903011S13063 1903 7 SI MM NOT_NAMED 1903-01-13 15:00:00 NR -17.0929 61.5443 spur-split 522 508 _____P________ -1 -17.0929 61.5443 99 7 178
1903011S13063 1903 7 SI MM NOT_NAMED 1903-01-13 18:00:00 NR -17.4223 61.5589 spur-split 509 490 _____P________ -1 -17.4223 61.5589 99 7 176
1903011S13063 1903 7 SI MM NOT_NAMED 1903-01-13 21:00:00 NR -17.7488 61.5850 spur-split 490 466 _____P________ -1 -17.7488 61.5850 99 7 175
1903011S13063 1903 7 SI MM NOT_NAMED 1903-01-14 00:00:00 NR -18.0714 61.6194 spur-split 466 456 _____P________ -1 -18.0714 61.6194 99 6 174
1903011S13063 1903 7 SI MM NOT_NAMED 1903-01-14 03:00:00 NR -18.3889 61.6588 spur-split 460 446 _____P________ -1 -18.3889 61.6588 99 6 173
1903011S13063 1903 7 SI MM NOT_NAMED 1903-01-14 06:00:00 NR -18.7000 61.7000 reunion spur-split 446 433 _____O________ -1 -18.7000 61.7000 99 9.90000 6 175
1903011S13063 1903 7 SI MM NOT_NAMED 1903-01-14 09:00:00 NR -19.0033 61.7244 spur-split 433 423 _____P________ -1 -19.0033 61.7244 99 6 175
1903011S13063 1903 7 SI MM NOT_NAMED 1903-01-14 12:00:00 NR -19.3005 61.7526 spur-split 433 425 _____P________ -1 -19.3005 61.7526 99 6 174
1903011S13063 1903 7 SI MM NOT_NAMED 1903-01-14 15:00:00 NR -19.5925 61.7846 spur-split 425 420 _____P________ -1 -19.5925 61.7846 99 6 174
1903011S13063 1903 7 SI MM NOT_NAMED 1903-01-14 18:00:00 NR -19.8799 61.8203 spur-split 420 417 _____P________ -1 -19.8799 61.8203 99 6 174
1903011S13063 1903 7 SI MM NOT_NAMED 1903-01-14 21:00:00 NR -20.1636 61.8597 spur-split 427 427 _____P________ -1 -20.1636 61.8597 99 6 172
1903011S13063 1903 7 SI MM NOT_NAMED 1903-01-15 00:00:00 NR -20.4443 61.9028 spur-split 427 427 _____P________ -1 -20.4443 61.9028 99 6 171
1903011S13063 1903 7 SI MM NOT_NAMED 1903-01-15 03:00:00 NR -20.7229 61.9495 spur-split 429 429 _____P________ -1 -20.7229 61.9495 99 6 171
1903011S13063 1903 7 SI MM NOT_NAMED 1903-01-15 06:00:00 NR -21.0000 62.0000 reunion spur-split 443 443 _____O________ -1 -21.0000 62.0000 99 9.90000 6 171
1903011S13063 1903 7 SI MM NOT_NAMED 1903-01-15 09:00:00 NR -21.3045 62.0568 spur-split 460 460 _____P________ -1 -21.3045 62.0568 99 6 169
1903011S13063 1903 7 SI MM NOT_NAMED 1903-01-15 12:00:00 NR -21.6100 62.1183 spur-split 469 469 _____P________ -1 -21.6100 62.1183 99 6 169
1903011S13063 1903 7 SI MM NOT_NAMED 1903-01-15 15:00:00 NR -21.9117 62.1830 spur-split 490 490 _____P________ -1 -21.9117 62.1830 99 6 169
1903011S13063 1903 7 SI MM NOT_NAMED 1903-01-15 18:00:00 NR -22.2050 62.2493 spur-split 502 502 _____P________ -1 -22.2050 62.2493 99 6 168
1903011S13063 1903 7 SI MM NOT_NAMED 1903-01-15 21:00:00 NR -22.4851 62.3158 spur-split 525 525 _____P________ -1 -22.4851 62.3158 99 6 168
1903011S13063 1903 7 SI MM NOT_NAMED 1903-01-16 00:00:00 NR -22.7475 62.3808 spur-split 544 544 _____P________ -1 -22.7475 62.3808 99 5 167
1903011S13063 1903 7 SI MM NOT_NAMED 1903-01-16 03:00:00 NR -22.9874 62.4427 spur-split 559 559 _____P________ -1 -22.9874 62.4427 99 5 166
1903011S13063 1903 7 SI MM NOT_NAMED 1903-01-16 06:00:00 NR -23.2000 62.5000 reunion spur-split 579 579 _____O________ -1 -23.2000 62.5000 99 9.90000 4 166
1903011S13063 1903 7 SI MM NOT_NAMED 1903-01-16 09:00:00 NR -23.3822 62.5514 spur-split 600 600 _____P________ -1 -23.3822 62.5514 99 4 166
1903011S13063 1903 7 SI MM NOT_NAMED 1903-01-16 12:00:00 NR -23.5365 62.5973 spur-split 606 606 _____P________ -1 -23.5365 62.5973 99 3 164
1903011S13063 1903 7 SI MM NOT_NAMED 1903-01-16 15:00:00 NR -23.6669 62.6384 spur-split 618 618 _____P________ -1 -23.6669 62.6384 99 3 164
1903011S13063 1903 7 SI MM NOT_NAMED 1903-01-16 18:00:00 NR -23.7774 62.6755 spur-split 633 633 _____P________ -1 -23.7774 62.6755 99 2 161
1903011S13063 1903 7 SI MM NOT_NAMED 1903-01-16 21:00:00 NR -23.8720 62.7094 spur-split 639 639 _____P________ -1 -23.8720 62.7094 99 2 163
1903011S13063 1903 7 SI MM NOT_NAMED 1903-01-17 00:00:00 NR -23.9547 62.7409 spur-split 646 646 _____P________ -1 -23.9547 62.7409 99 2 160
1903011S13063 1903 7 SI MM NOT_NAMED 1903-01-17 03:00:00 NR -24.0293 62.7709 spur-split 654 654 _____P________ -1 -24.0293 62.7709 99 2 162
1903011S13063 1903 7 SI MM NOT_NAMED 1903-01-17 06:00:00 NR -24.1000 62.8000 reunion spur-split 661 _____O________ -1 -24.1000 62.8000 99 9.90000 2 0

About IBTrACS Database

This database is a web-friendly format of International Best Track Archive for Climate Stewardship (IBTrACS), a global best track data archive curated by NOAA dating back to 1842.

Updated: 2021-12-03